createdAt,value
2023-03-05T00:01:16.564Z,2.30
2023-03-05T00:03:44.552Z,2.40
2023-03-05T00:06:12.521Z,2.40
2023-03-05T00:08:40.432Z,1.90
2023-03-05T00:11:09.288Z,2.20
2023-03-05T00:13:37.593Z,2.10
2023-03-05T00:16:07.856Z,2.67
2023-03-05T00:18:37.156Z,2.10
2023-03-05T00:21:05.506Z,2.20
2023-03-05T00:23:33.430Z,2.13
2023-03-05T00:26:03.535Z,2.17
2023-03-05T00:28:31.514Z,2.00
2023-03-05T00:31:01.370Z,2.40
2023-03-05T00:33:30.630Z,2.10
2023-03-05T00:36:02.487Z,2.17
2023-03-05T00:38:30.444Z,2.00
2023-03-05T00:40:58.347Z,2.00
2023-03-05T00:43:26.678Z,2.10
2023-03-05T00:45:54.702Z,2.17
2023-03-05T00:48:23.271Z,2.20
2023-03-05T00:50:52.616Z,2.10
2023-03-05T00:53:20.537Z,2.20
2023-03-05T00:55:51.496Z,2.10
2023-03-05T00:58:19.430Z,1.80
2023-03-05T01:00:50.443Z,1.93
2023-03-05T01:03:18.374Z,1.80
2023-03-05T01:05:46.288Z,2.00
2023-03-05T01:08:16.770Z,2.00
2023-03-05T01:10:44.707Z,2.17
2023-03-05T01:13:12.941Z,1.97
2023-03-05T01:15:40.840Z,2.10
2023-03-05T01:18:08.734Z,2.10
2023-03-05T01:20:36.711Z,1.90
2023-03-05T01:23:04.587Z,1.90
2023-03-05T01:25:33.868Z,1.60
2023-03-05T01:28:01.781Z,1.90
2023-03-05T01:30:29.686Z,2.07
2023-03-05T01:32:57.820Z,2.10
2023-03-05T01:35:28.764Z,2.10
2023-03-05T01:37:56.916Z,1.90
2023-03-05T01:40:26.811Z,2.10
2023-03-05T01:42:59.712Z,1.83
2023-03-05T01:45:27.720Z,1.97
2023-03-05T01:47:55.623Z,1.80
2023-03-05T01:50:24.427Z,2.10
2023-03-05T01:52:54.555Z,1.80
2023-03-05T01:55:23.559Z,2.00
2023-03-05T01:57:52.792Z,2.00
2023-03-05T02:00:23.756Z,1.97
2023-03-05T02:02:51.892Z,2.10
2023-03-05T02:05:20.954Z,1.87
2023-03-05T02:07:48.923Z,1.93
2023-03-05T02:10:18.900Z,2.10
2023-03-05T02:12:46.901Z,1.70
2023-03-05T02:15:14.829Z,2.00
2023-03-05T02:17:44.106Z,1.90
2023-03-05T02:20:13.591Z,2.20
2023-03-05T02:22:42.843Z,2.00
2023-03-05T02:25:15.738Z,1.93
2023-03-05T02:27:45.026Z,1.90
2023-03-05T02:30:13.656Z,2.20
2023-03-05T02:32:41.634Z,2.20
2023-03-05T02:35:10.525Z,2.00
2023-03-05T02:37:38.463Z,2.10
2023-03-05T02:40:10.402Z,2.07
2023-03-05T02:42:38.438Z,2.00
2023-03-05T02:45:08.346Z,1.97
2023-03-05T02:47:36.375Z,2.37
2023-03-05T02:50:04.390Z,2.00
2023-03-05T02:52:32.280Z,2.10
2023-03-05T02:55:00.168Z,2.03
2023-03-05T02:57:31.702Z,1.97
2023-03-05T02:59:59.733Z,2.20
2023-03-05T03:02:27.919Z,2.20
2023-03-05T03:04:55.943Z,2.33
2023-03-05T03:07:23.856Z,2.30
2023-03-05T03:09:51.892Z,1.93
2023-03-05T03:12:19.809Z,2.10
2023-03-05T03:14:49.055Z,2.10
2023-03-05T03:17:17.672Z,2.10
2023-03-05T03:19:45.766Z,1.80
2023-03-05T03:22:14.501Z,2.10
2023-03-05T03:24:42.598Z,2.00
2023-03-05T03:27:10.555Z,2.20
2023-03-05T03:29:38.517Z,1.97
2023-03-05T03:32:09.147Z,2.17
2023-03-05T03:34:37.082Z,2.00
2023-03-05T03:37:04.980Z,2.10
2023-03-05T03:39:32.858Z,2.10
2023-03-05T03:42:00.717Z,2.27
2023-03-05T03:44:28.638Z,2.10
2023-03-05T03:46:56.522Z,2.07
2023-03-05T03:49:26.629Z,2.50
2023-03-05T03:51:55.483Z,2.20
2023-03-05T03:54:23.537Z,2.40
2023-03-05T03:56:51.468Z,2.37
2023-03-05T03:59:19.378Z,2.13
2023-03-05T04:01:47.802Z,2.00
2023-03-05T04:04:15.754Z,2.40
2023-03-05T04:06:45.092Z,2.00
2023-03-05T04:09:12.982Z,1.90
2023-03-05T04:11:40.890Z,2.10
2023-03-05T04:14:08.747Z,2.23
2023-03-05T04:16:36.583Z,2.07
2023-03-05T04:19:04.453Z,2.20
2023-03-05T04:21:32.365Z,2.50
2023-03-05T04:24:01.641Z,2.10
2023-03-05T04:26:29.535Z,2.03
2023-03-05T04:28:57.424Z,2.17
2023-03-05T04:31:25.369Z,2.23
2023-03-05T04:33:53.324Z,2.10
2023-03-05T04:36:21.295Z,2.17
2023-03-05T04:38:49.172Z,2.10
2023-03-05T04:41:18.411Z,1.90
2023-03-05T04:43:46.272Z,2.30
2023-03-05T04:46:14.197Z,2.10
2023-03-05T04:48:42.137Z,2.20
2023-03-05T04:51:09.981Z,2.20
2023-03-05T04:53:37.923Z,2.30
2023-03-05T04:56:06.520Z,2.20
2023-03-05T04:58:35.750Z,2.50
2023-03-05T05:01:03.845Z,2.53
2023-03-05T05:03:31.921Z,2.20
2023-03-05T05:06:00.122Z,2.37
2023-03-05T05:08:28.154Z,2.33
2023-03-05T05:11:00.186Z,2.47
2023-03-05T05:13:28.119Z,2.20
2023-03-05T05:15:57.586Z,2.10
2023-03-05T05:18:25.648Z,2.00
2023-03-05T05:20:53.549Z,2.17
2023-03-05T05:23:21.444Z,2.30
2023-03-05T05:25:57.764Z,2.30
2023-03-05T05:28:25.663Z,2.10
2023-03-05T05:30:53.571Z,2.40
2023-03-05T05:33:22.858Z,1.87
2023-03-05T05:35:50.911Z,2.00
2023-03-05T05:38:18.836Z,2.40
2023-03-05T05:40:46.750Z,2.10
2023-03-05T05:43:14.697Z,2.03
2023-03-05T05:45:42.691Z,2.20
2023-03-05T05:48:10.721Z,2.13
2023-03-05T05:50:41.108Z,2.13
2023-03-05T05:53:10.149Z,2.20
2023-03-05T05:55:41.217Z,2.27
2023-03-05T05:58:09.149Z,2.20
2023-03-05T06:00:37.089Z,2.43
2023-03-05T06:03:05.179Z,2.37
2023-03-05T06:05:33.137Z,2.20
2023-03-05T06:08:02.431Z,2.10
2023-03-05T06:10:30.312Z,2.10
2023-03-05T06:12:58.228Z,2.10
2023-03-05T06:15:26.159Z,2.40
2023-03-05T06:17:54.540Z,2.07
2023-03-05T06:20:23.148Z,2.20
2023-03-05T06:22:51.257Z,2.30
2023-03-05T06:25:20.511Z,2.10
2023-03-05T06:27:48.453Z,2.40
2023-03-05T06:30:16.561Z,2.33
2023-03-05T06:32:44.460Z,2.00
2023-03-05T06:35:13.985Z,2.37
2023-03-05T06:37:41.878Z,2.33
2023-03-05T06:40:11.143Z,2.23
2023-03-05T06:42:40.419Z,2.27
2023-03-05T06:45:09.928Z,2.23
2023-03-05T06:47:37.823Z,2.40
2023-03-05T06:50:06.528Z,2.27
2023-03-05T06:52:34.454Z,2.17
2023-03-05T06:55:02.340Z,2.20
2023-03-05T06:57:30.228Z,2.10
2023-03-05T06:59:59.569Z,2.30
2023-03-05T07:02:27.615Z,2.10
2023-03-05T07:04:55.564Z,1.73
2023-03-05T07:07:23.446Z,2.13
2023-03-05T07:09:53.033Z,2.27
2023-03-05T07:12:20.934Z,2.20
2023-03-05T07:14:48.884Z,2.03
2023-03-05T07:17:18.279Z,2.30
2023-03-05T07:19:46.164Z,2.10
2023-03-05T07:22:14.015Z,1.77
2023-03-05T07:24:41.965Z,2.00
2023-03-05T07:27:09.847Z,2.20
2023-03-05T07:29:39.906Z,2.40
2023-03-05T07:32:08.218Z,2.20
2023-03-05T07:34:38.319Z,2.40
2023-03-05T07:37:06.552Z,2.20
2023-03-05T07:39:34.494Z,1.87
2023-03-05T07:42:02.514Z,2.00
2023-03-05T07:44:47.732Z,2.00
2023-03-05T07:47:15.838Z,2.07
2023-03-05T07:49:45.061Z,2.30
2023-03-05T07:52:12.923Z,2.00
2023-03-05T07:54:40.885Z,1.80
2023-03-05T07:57:08.959Z,2.00
2023-03-05T07:59:36.888Z,1.80
2023-03-05T08:02:04.900Z,1.97
2023-03-05T08:04:32.919Z,2.10
2023-03-05T08:07:02.260Z,2.00
2023-03-05T08:09:30.181Z,1.93
2023-03-05T08:11:58.096Z,2.00
2023-03-05T08:14:25.961Z,2.03
2023-03-05T08:16:53.883Z,1.90
2023-03-05T08:19:22.018Z,2.00
2023-03-05T08:21:49.929Z,1.80
2023-03-05T08:24:19.211Z,2.07
2023-03-05T08:26:47.062Z,1.90
2023-03-05T08:29:14.945Z,2.10
2023-03-05T08:31:42.960Z,2.00
2023-03-05T08:34:10.873Z,1.90
2023-03-05T08:36:38.802Z,2.10
2023-03-05T08:39:08.441Z,2.10
2023-03-05T08:41:37.707Z,2.10
2023-03-05T08:44:05.843Z,1.90
2023-03-05T08:46:33.861Z,2.10
2023-03-05T08:49:01.799Z,2.10
2023-03-05T08:51:29.718Z,1.90
2023-03-05T08:53:58.745Z,2.10
2023-03-05T08:56:28.316Z,1.90
2023-03-05T08:58:57.643Z,1.80
2023-03-05T09:01:25.578Z,1.73
2023-03-05T09:03:53.523Z,1.93
2023-03-05T09:06:21.430Z,1.90
2023-03-05T09:08:49.342Z,1.80
2023-03-05T09:11:17.317Z,1.90
2023-03-05T09:13:45.231Z,1.80
2023-03-05T09:16:15.775Z,1.90
2023-03-05T09:18:43.727Z,1.80
2023-03-05T09:21:13.244Z,1.67
2023-03-05T09:23:41.235Z,1.80
2023-03-05T09:26:10.062Z,1.80
2023-03-05T09:28:38.183Z,1.73
2023-03-05T09:31:07.413Z,1.63
2023-03-05T09:33:36.767Z,1.70
2023-03-05T09:36:05.276Z,1.80
2023-03-05T09:38:33.318Z,1.63
2023-03-05T09:41:06.440Z,1.70
2023-03-05T09:43:39.382Z,1.80
2023-03-05T09:46:14.560Z,1.70
2023-03-05T09:48:51.667Z,1.97
2023-03-05T09:51:23.147Z,1.50
2023-03-05T09:53:54.705Z,1.80
2023-03-05T09:56:24.876Z,1.73
2023-03-05T09:58:56.606Z,1.90
2023-03-05T10:01:29.113Z,1.87
2023-03-05T10:03:59.125Z,1.70
2023-03-05T10:06:28.337Z,1.80
2023-03-05T10:08:57.896Z,1.63
2023-03-05T10:11:37.519Z,1.80
2023-03-05T10:14:05.450Z,1.83
2023-03-05T10:16:54.828Z,1.60
2023-03-05T10:19:32.899Z,1.80
2023-03-05T10:22:07.870Z,1.80
2023-03-05T10:24:39.808Z,1.60
2023-03-05T10:27:09.205Z,1.70
2023-03-05T10:29:53.984Z,1.80
2023-03-05T10:32:30.533Z,1.73
2023-03-05T10:35:18.406Z,1.60
2023-03-05T10:38:07.594Z,1.80
2023-03-05T10:40:37.415Z,1.70
2023-03-05T10:43:08.994Z,1.90
2023-03-05T10:45:38.007Z,1.83
2023-03-05T10:48:08.524Z,1.67
2023-03-05T10:50:39.006Z,1.87
2023-03-05T10:53:14.289Z,1.60
2023-03-05T10:55:42.267Z,1.73
2023-03-05T10:58:12.463Z,1.67
2023-03-05T11:00:40.403Z,1.80
2023-03-05T11:03:09.331Z,1.90
2023-03-05T11:05:48.678Z,1.63
2023-03-05T11:08:38.888Z,1.93
2023-03-05T11:11:14.067Z,1.80
2023-03-05T11:13:51.789Z,1.60
2023-03-05T11:16:21.217Z,1.73
2023-03-05T11:18:49.240Z,1.90
2023-03-05T11:21:23.907Z,1.70
2023-03-05T11:24:13.843Z,1.60
2023-03-05T11:26:49.209Z,1.60
2023-03-05T11:29:22.527Z,1.60
2023-03-05T11:31:50.505Z,1.70
2023-03-05T11:34:28.956Z,1.77
2023-03-05T11:37:07.992Z,1.57
2023-03-05T11:39:38.312Z,1.50
2023-03-05T11:42:07.413Z,1.50
2023-03-05T11:44:39.481Z,1.60
2023-03-05T11:47:15.020Z,1.50
2023-03-05T11:49:45.970Z,1.70
2023-03-05T11:52:16.618Z,1.50
2023-03-05T11:54:49.678Z,1.60
2023-03-05T11:57:17.545Z,1.40
2023-03-05T11:59:45.465Z,1.63
2023-03-05T12:02:19.536Z,1.53
2023-03-05T12:04:47.632Z,1.50
2023-03-05T12:07:18.780Z,1.80
2023-03-05T12:09:47.670Z,1.60
2023-03-05T12:12:29.142Z,1.60
2023-03-05T12:14:58.044Z,1.50
2023-03-05T12:17:27.807Z,1.67
2023-03-05T12:19:56.855Z,1.73
2023-03-05T12:22:27.857Z,1.70
2023-03-05T12:24:55.750Z,1.70
2023-03-05T12:27:41.611Z,1.80
2023-03-05T12:30:27.537Z,1.60
2023-03-05T12:32:55.449Z,1.57
2023-03-05T12:35:24.914Z,1.60
2023-03-05T12:38:24.152Z,1.67
2023-03-05T12:40:53.193Z,1.60
2023-03-05T12:43:32.397Z,1.30
2023-03-05T12:46:25.710Z,1.70
2023-03-05T12:48:53.622Z,1.40
2023-03-05T12:51:35.156Z,1.80
2023-03-05T12:54:32.520Z,1.57
2023-03-05T12:57:01.066Z,1.73
2023-03-05T12:59:41.234Z,1.50
2023-03-05T13:02:19.801Z,1.70
2023-03-05T13:04:47.729Z,1.50
2023-03-05T13:07:16.389Z,1.80
2023-03-05T13:09:54.571Z,1.50
2023-03-05T13:12:22.951Z,1.63
2023-03-05T13:14:58.141Z,1.50
2023-03-05T13:17:33.857Z,1.40
2023-03-05T13:20:02.549Z,1.47
2023-03-05T13:22:31.081Z,1.60
2023-03-05T13:25:13.302Z,1.67
2023-03-05T13:27:41.480Z,1.30
2023-03-05T13:30:22.080Z,1.43
2023-03-05T13:32:51.504Z,1.63
2023-03-05T13:35:20.635Z,1.83
2023-03-05T13:37:48.569Z,1.67
2023-03-05T13:40:20.973Z,1.90
2023-03-05T13:42:48.914Z,1.90
2023-03-05T13:45:27.706Z,2.17
2023-03-05T13:48:00.059Z,1.80
2023-03-05T13:50:28.949Z,1.53
2023-03-05T13:52:59.280Z,1.80
2023-03-05T13:55:28.665Z,1.80
2023-03-05T13:57:56.570Z,1.60
2023-03-05T14:00:34.116Z,2.10
2023-03-05T14:03:08.175Z,1.50
2023-03-05T14:05:36.116Z,1.73
2023-03-05T14:08:04.143Z,1.53
2023-03-05T14:10:35.121Z,1.83
2023-03-05T14:13:04.502Z,1.87
2023-03-05T14:15:33.246Z,1.70
2023-03-05T14:18:25.293Z,1.60
2023-03-05T14:21:01.702Z,1.73
2023-03-05T14:23:35.967Z,1.80
2023-03-05T14:26:23.796Z,1.70
2023-03-05T14:28:52.488Z,1.63
2023-03-05T14:31:20.426Z,2.13
2023-03-05T14:33:48.419Z,1.70
2023-03-05T14:36:21.116Z,1.93
2023-03-05T14:38:49.067Z,1.93
2023-03-05T14:41:22.699Z,1.70
2023-03-05T14:43:50.579Z,1.70
2023-03-05T14:46:18.530Z,1.67
2023-03-05T14:48:46.962Z,1.70
2023-03-05T14:51:14.929Z,1.80
2023-03-05T14:53:46.965Z,1.83
2023-03-05T14:56:18.808Z,1.67
2023-03-05T14:58:48.145Z,1.53
2023-03-05T15:01:16.064Z,1.93
2023-03-05T15:03:44.076Z,1.87
2023-03-05T15:06:18.401Z,1.80
2023-03-05T15:08:46.352Z,1.87
2023-03-05T15:11:14.316Z,1.80
2023-03-05T15:13:42.264Z,1.87
2023-03-05T15:16:14.387Z,1.70
2023-03-05T15:18:42.303Z,1.93
2023-03-05T15:21:10.306Z,1.90
2023-03-05T15:23:38.514Z,1.97
2023-03-05T15:26:07.431Z,1.83
2023-03-05T15:28:36.001Z,1.80
2023-03-05T15:31:04.248Z,1.73
2023-03-05T15:33:33.625Z,1.80
2023-03-05T15:36:01.590Z,1.60
2023-03-05T15:38:29.541Z,2.00
2023-03-05T15:40:58.936Z,2.13
2023-03-05T15:43:27.822Z,1.97
2023-03-05T15:45:55.764Z,1.93
2023-03-05T15:48:23.670Z,2.50
2023-03-05T15:50:52.928Z,1.93
2023-03-05T15:53:22.426Z,2.30
2023-03-05T15:55:50.387Z,2.20
2023-03-05T15:58:18.386Z,2.23
2023-03-05T16:00:47.361Z,2.10
2023-03-05T16:03:15.327Z,2.43
2023-03-05T16:05:43.247Z,2.77
2023-03-05T16:08:12.586Z,2.70
2023-03-05T16:10:40.938Z,2.70
2023-03-05T16:13:10.497Z,2.33
2023-03-05T16:15:38.975Z,2.13
2023-03-05T16:18:08.481Z,2.30
2023-03-05T16:20:36.597Z,2.33
2023-03-05T16:23:04.734Z,2.50
2023-03-05T16:25:34.053Z,2.20
2023-03-05T16:28:01.995Z,2.30
2023-03-05T16:30:29.895Z,2.33
2023-03-05T16:32:57.909Z,2.30
2023-03-05T16:35:26.004Z,2.27
2023-03-05T16:37:53.928Z,2.27
2023-03-05T16:40:21.865Z,2.40
2023-03-05T16:42:51.164Z,2.00
2023-03-05T16:45:19.188Z,2.30
2023-03-05T16:47:47.086Z,2.10
2023-03-05T16:50:15.035Z,2.13
2023-03-05T16:52:42.941Z,2.80
2023-03-05T16:55:11.116Z,2.10
2023-03-05T16:57:39.430Z,2.43
2023-03-05T17:00:11.458Z,2.40
2023-03-05T17:02:39.376Z,2.57
2023-03-05T17:05:07.687Z,2.30
2023-03-05T17:07:35.615Z,2.57
2023-03-05T17:10:03.527Z,2.13
2023-03-05T17:12:31.421Z,2.43
2023-03-05T17:14:59.394Z,2.40
2023-03-05T17:17:28.750Z,2.20
2023-03-05T17:19:56.816Z,2.33
2023-03-05T17:22:24.790Z,2.13
2023-03-05T17:24:54.592Z,2.63
2023-03-05T17:27:22.720Z,2.10
2023-03-05T17:29:50.615Z,2.27
2023-03-05T17:32:18.603Z,2.20
2023-03-05T17:34:47.911Z,2.27
2023-03-05T17:37:16.142Z,2.33
2023-03-05T17:39:44.022Z,2.37
2023-03-05T17:42:11.985Z,2.10
2023-03-05T17:44:39.906Z,2.20
2023-03-05T17:47:07.801Z,2.00
2023-03-05T17:49:35.726Z,2.10
2023-03-05T17:52:05.080Z,2.30
2023-03-05T17:54:33.031Z,2.20
2023-03-05T17:57:02.131Z,2.40
2023-03-05T17:59:30.076Z,2.33
2023-03-05T18:01:58.054Z,2.10
2023-03-05T18:04:27.681Z,2.10
2023-03-05T18:06:55.584Z,2.00
2023-03-05T18:09:27.397Z,1.93
2023-03-05T18:11:55.579Z,2.20
2023-03-05T18:14:23.470Z,2.10
2023-03-05T18:16:51.625Z,2.50
2023-03-05T18:19:19.673Z,2.27
2023-03-05T18:21:47.623Z,2.27
2023-03-05T18:24:15.486Z,2.10
2023-03-05T18:26:44.718Z,2.17
2023-03-05T18:29:12.836Z,2.43
2023-03-05T18:31:40.804Z,1.97
2023-03-05T18:34:08.728Z,1.87
2023-03-05T18:36:36.566Z,1.97
2023-03-05T18:39:04.496Z,2.20
2023-03-05T18:41:32.671Z,1.97
2023-03-05T18:44:02.193Z,2.10
2023-03-05T18:46:30.083Z,2.03
2023-03-05T18:48:57.992Z,1.97
2023-03-05T18:51:25.903Z,2.07
2023-03-05T18:53:57.378Z,2.10
2023-03-05T18:56:25.331Z,1.93
2023-03-05T18:58:53.235Z,1.80
2023-03-05T19:01:22.566Z,2.10
2023-03-05T19:03:52.565Z,2.00
2023-03-05T19:06:20.494Z,2.07
2023-03-05T19:08:51.668Z,1.90
2023-03-05T19:11:20.401Z,1.90
2023-03-05T19:13:50.252Z,2.13
2023-03-05T19:16:19.139Z,1.93
2023-03-05T19:18:59.938Z,2.00
2023-03-05T19:21:27.822Z,1.80
2023-03-05T19:23:58.057Z,1.80
2023-03-05T19:26:26.199Z,1.80
2023-03-05T19:28:54.136Z,2.00
2023-03-05T19:31:22.101Z,1.97
2023-03-05T19:33:51.412Z,2.00
2023-03-05T19:36:19.286Z,1.73
2023-03-05T19:38:48.679Z,2.00
2023-03-05T19:41:19.404Z,1.83
2023-03-05T19:43:49.096Z,2.00
2023-03-05T19:46:17.342Z,1.63
2023-03-05T19:48:48.032Z,1.80
2023-03-05T19:51:19.137Z,2.10
2023-03-05T19:53:47.303Z,1.83
2023-03-05T19:56:15.778Z,1.70
2023-03-05T19:58:45.385Z,1.90
2023-03-05T20:01:14.406Z,1.80
2023-03-05T20:03:42.525Z,1.83
2023-03-05T20:06:10.377Z,1.90
2023-03-05T20:08:39.707Z,1.90
2023-03-05T20:11:07.698Z,1.80
2023-03-05T20:13:35.809Z,1.83
2023-03-05T20:16:06.438Z,1.80
2023-03-05T20:18:34.799Z,1.90
2023-03-05T20:21:03.394Z,1.67
2023-03-05T20:23:31.290Z,1.67
2023-03-05T20:26:00.562Z,1.97
2023-03-05T20:28:28.506Z,1.77
2023-03-05T20:30:56.741Z,2.10
2023-03-05T20:33:24.810Z,1.70
2023-03-05T20:35:53.327Z,1.97
2023-03-05T20:38:25.925Z,1.70
2023-03-05T20:40:54.537Z,1.90
2023-03-05T20:43:23.922Z,1.97
2023-03-05T20:45:53.077Z,1.60
2023-03-05T20:48:21.088Z,1.70
2023-03-05T20:50:49.005Z,1.77
2023-03-05T20:53:17.040Z,1.90
2023-03-05T20:55:45.175Z,1.80
2023-03-05T20:58:13.220Z,1.80
2023-03-05T21:00:45.167Z,1.83
2023-03-05T21:03:13.239Z,1.73
2023-03-05T21:05:41.148Z,2.10
2023-03-05T21:08:09.043Z,1.93
2023-03-05T21:10:39.961Z,2.10
2023-03-05T21:13:07.874Z,1.90
2023-03-05T21:15:35.765Z,1.93
2023-03-05T21:18:05.389Z,2.10
2023-03-05T21:20:33.385Z,1.80
2023-03-05T21:23:01.404Z,1.93
2023-03-05T21:25:29.864Z,1.90
2023-03-05T21:27:58.483Z,1.90
2023-03-05T21:30:31.408Z,1.70
2023-03-05T21:33:00.123Z,1.90
2023-03-05T21:35:29.898Z,2.13
2023-03-05T21:37:57.787Z,2.10
2023-03-05T21:40:25.668Z,2.10
2023-03-05T21:42:53.765Z,1.90
2023-03-05T21:45:22.526Z,1.97
2023-03-05T21:47:52.031Z,1.90
2023-03-05T21:50:19.987Z,2.00
2023-03-05T21:52:49.336Z,1.77
2023-03-05T21:55:18.904Z,1.90
2023-03-05T21:57:46.911Z,2.07
2023-03-05T22:00:17.126Z,1.80
2023-03-05T22:02:45.815Z,1.90
2023-03-05T22:05:15.531Z,2.10
2023-03-05T22:07:43.891Z,1.80
2023-03-05T22:10:14.269Z,2.00
2023-03-05T22:12:53.118Z,2.07
2023-03-05T22:15:21.669Z,1.80
2023-03-05T22:17:49.644Z,1.83
2023-03-05T22:20:18.120Z,1.70
2023-03-05T22:22:46.342Z,1.70
2023-03-05T22:25:17.765Z,2.00
2023-03-05T22:27:45.766Z,1.90
2023-03-05T22:30:14.554Z,1.80
2023-03-05T22:32:44.831Z,2.07
2023-03-05T22:35:13.582Z,1.70
2023-03-05T22:37:42.434Z,1.90
2023-03-05T22:40:11.422Z,2.20
2023-03-05T22:42:41.364Z,2.07
2023-03-05T22:45:09.808Z,1.90
2023-03-05T22:47:37.709Z,1.80
2023-03-05T22:50:06.408Z,1.80
2023-03-05T22:52:34.346Z,1.87
2023-03-05T22:55:03.069Z,2.40
2023-03-05T22:57:30.994Z,2.00
2023-03-05T23:00:00.458Z,1.93
2023-03-05T23:02:28.355Z,1.90
2023-03-05T23:04:57.654Z,1.90
2023-03-05T23:07:26.316Z,2.10
2023-03-05T23:09:54.669Z,2.00
2023-03-05T23:12:22.677Z,2.00
2023-03-05T23:14:50.589Z,2.07
2023-03-05T23:17:19.812Z,2.30
2023-03-05T23:19:47.809Z,2.10
2023-03-05T23:22:15.753Z,1.80
2023-03-05T23:24:43.744Z,2.10
2023-03-05T23:27:12.061Z,2.00
2023-03-05T23:29:54.367Z,2.20
2023-03-05T23:32:23.674Z,2.37
2023-03-05T23:34:51.556Z,2.43
2023-03-05T23:37:19.458Z,2.30
2023-03-05T23:39:49.058Z,2.10
2023-03-05T23:42:16.983Z,2.00
2023-03-05T23:44:44.845Z,2.10
2023-03-05T23:47:14.072Z,2.13
2023-03-05T23:49:43.311Z,2.27
2023-03-05T23:52:12.467Z,2.20
2023-03-05T23:54:40.392Z,2.10
2023-03-05T23:57:08.312Z,2.10
2023-03-05T23:59:36.268Z,2.20
